createdAt,value
2022-10-05T00:04:18.723Z,44.40
2022-10-05T00:09:24.058Z,66.37
2022-10-05T00:14:34.192Z,50.80
2022-10-05T00:19:40.404Z,49.37
2022-10-05T00:24:47.753Z,46.68
2022-10-05T00:29:54.900Z,45.10
2022-10-05T00:34:59.859Z,45.80
2022-10-05T00:40:08.394Z,45.93
2022-10-05T00:45:22.638Z,45.50
2022-10-05T00:50:34.708Z,45.70
2022-10-05T00:55:49.210Z,45.03
2022-10-05T01:01:07.592Z,47.07
2022-10-05T01:06:25.229Z,46.37
2022-10-05T01:11:33.211Z,42.43
2022-10-05T01:17:04.710Z,43.27
2022-10-05T01:22:16.157Z,43.00
2022-10-05T01:27:46.191Z,43.60
2022-10-05T01:32:57.487Z,42.97
2022-10-05T01:38:06.982Z,42.53
2022-10-05T01:43:25.261Z,42.60
2022-10-05T01:48:51.300Z,42.15
2022-10-05T01:54:16.471Z,43.70
2022-10-05T01:59:30.948Z,42.77
2022-10-05T02:05:01.584Z,42.63
2022-10-05T02:10:02.038Z,43.30
2022-10-05T02:15:14.138Z,43.40
2022-10-05T02:20:26.425Z,41.80
2022-10-05T02:25:34.398Z,41.77
2022-10-05T02:30:45.864Z,42.97
2022-10-05T02:35:51.361Z,41.63
2022-10-05T02:41:08.392Z,40.90
2022-10-05T02:46:19.947Z,40.90
2022-10-05T02:51:40.348Z,40.23
2022-10-05T02:56:57.441Z,41.53
2022-10-05T03:02:11.445Z,42.23
2022-10-05T03:07:27.594Z,42.20
2022-10-05T03:12:54.376Z,42.98
2022-10-05T03:18:16.944Z,40.30
2022-10-05T03:23:40.628Z,40.67
2022-10-05T03:29:15.257Z,41.30
2022-10-05T03:34:30.566Z,41.33
2022-10-05T03:39:44.574Z,42.47
2022-10-05T03:45:15.687Z,42.15
2022-10-05T03:50:27.294Z,41.13
2022-10-05T03:55:45.858Z,40.43
2022-10-05T04:00:54.192Z,41.57
2022-10-05T04:06:11.118Z,40.57
2022-10-05T04:11:20.473Z,41.05
2022-10-05T04:16:29.257Z,41.23
2022-10-05T04:21:56.075Z,40.93
2022-10-05T04:32:19.589Z,41.30
2022-10-05T04:42:52.881Z,41.20
2022-10-05T04:48:10.320Z,40.57
2022-10-05T04:53:25.140Z,40.55
2022-10-05T04:58:45.676Z,40.83
2022-10-05T05:04:09.023Z,40.63
2022-10-05T05:09:20.707Z,42.67
2022-10-05T05:15:00.435Z,43.10
2022-10-05T05:20:26.093Z,42.23
2022-10-05T05:25:56.199Z,41.27
2022-10-05T05:31:24.893Z,41.07
2022-10-05T05:36:52.178Z,40.50
2022-10-05T05:42:19.142Z,40.23
2022-10-05T05:47:39.168Z,40.90
2022-10-05T05:52:50.547Z,42.10
2022-10-05T05:58:02.170Z,41.07
2022-10-05T06:03:15.909Z,40.93
2022-10-05T06:08:25.023Z,40.80
2022-10-05T06:13:36.698Z,43.97
2022-10-05T06:18:44.959Z,43.97
2022-10-05T06:24:10.105Z,44.57
2022-10-05T06:29:22.022Z,45.13
2022-10-05T06:34:42.354Z,46.63
2022-10-05T06:39:50.558Z,47.00
2022-10-05T06:45:26.034Z,49.40
2022-10-05T06:50:51.246Z,46.87
2022-10-05T06:56:18.125Z,50.27
2022-10-05T07:02:00.051Z,49.45
2022-10-05T07:07:08.110Z,48.93
2022-10-05T07:12:27.549Z,50.17
2022-10-05T07:18:01.358Z,50.50
2022-10-05T07:23:12.961Z,50.93
2022-10-05T07:28:30.533Z,47.05
2022-10-05T07:33:54.329Z,46.60
2022-10-05T07:39:14.913Z,46.47
2022-10-05T07:44:38.192Z,46.23
2022-10-05T07:49:52.228Z,45.90
2022-10-05T07:55:34.050Z,46.60
2022-10-05T08:00:47.728Z,47.57
2022-10-05T08:05:52.872Z,52.30
2022-10-05T08:11:03.973Z,49.83
2022-10-05T08:16:14.947Z,47.93
2022-10-05T08:21:22.936Z,48.13
2022-10-05T08:26:53.080Z,46.97
2022-10-05T08:32:03.617Z,46.87
2022-10-05T08:37:12.130Z,47.03
2022-10-05T08:42:43.215Z,46.77
2022-10-05T08:47:54.282Z,46.70
2022-10-05T08:53:20.636Z,46.90
2022-10-05T08:58:35.004Z,49.10
2022-10-05T09:03:48.358Z,48.13
2022-10-05T09:09:05.182Z,48.57
2022-10-05T09:14:22.585Z,52.73
2022-10-05T09:19:55.096Z,50.98
2022-10-05T09:25:12.662Z,50.67
2022-10-05T09:30:39.143Z,49.90
2022-10-05T09:36:04.428Z,50.53
2022-10-05T09:41:42.261Z,50.67
2022-10-05T09:46:53.319Z,49.67
2022-10-05T09:52:18.614Z,50.23
2022-10-05T09:57:53.091Z,49.67
2022-10-05T10:08:29.848Z,48.78
2022-10-05T10:14:02.757Z,49.17
2022-10-05T10:19:24.188Z,50.00
2022-10-05T10:24:53.875Z,49.93
2022-10-05T10:30:27.605Z,52.77
2022-10-05T10:35:36.486Z,57.47
2022-10-05T10:41:12.240Z,52.60
2022-10-05T10:46:23.904Z,50.43
2022-10-05T10:51:49.491Z,48.70
2022-10-05T10:57:04.582Z,47.85
2022-10-05T11:02:23.288Z,48.17
2022-10-05T11:07:53.702Z,48.03
2022-10-05T11:13:30.867Z,48.30
2022-10-05T11:24:08.454Z,47.45
2022-10-05T11:29:51.490Z,47.50
2022-10-05T11:35:25.729Z,47.53
2022-10-05T11:40:49.006Z,48.27
2022-10-05T11:46:11.614Z,47.83
2022-10-05T11:51:49.552Z,47.93
2022-10-05T11:57:04.012Z,47.80
2022-10-05T12:02:45.798Z,48.15
2022-10-05T12:08:09.074Z,48.33
2022-10-05T12:13:44.526Z,48.40
2022-10-05T12:19:00.019Z,48.17
2022-10-05T12:24:24.566Z,48.10
2022-10-05T12:29:41.704Z,48.07
2022-10-05T12:35:03.400Z,47.93
2022-10-05T12:40:20.239Z,48.03
2022-10-05T12:45:34.830Z,48.15
2022-10-05T12:50:53.374Z,48.00
2022-10-05T12:56:14.701Z,48.02
2022-10-05T13:01:44.690Z,48.25
2022-10-05T13:07:16.423Z,48.40
2022-10-05T13:12:27.515Z,48.33
2022-10-05T13:17:43.219Z,48.20
2022-10-05T13:22:51.850Z,48.93
2022-10-05T13:28:17.531Z,48.80
2022-10-05T13:33:31.552Z,48.43
2022-10-05T13:38:49.421Z,48.40
2022-10-05T13:44:21.174Z,47.77
2022-10-05T13:49:41.707Z,48.43
2022-10-05T13:54:50.536Z,48.40
2022-10-05T14:00:05.923Z,48.40
2022-10-05T14:05:27.070Z,48.27
2022-10-05T14:10:39.655Z,48.53
2022-10-05T14:15:47.709Z,48.10
2022-10-05T14:21:12.257Z,48.40
2022-10-05T14:26:29.652Z,48.60
2022-10-05T14:31:37.802Z,48.10
2022-10-05T14:36:44.169Z,48.57
2022-10-05T14:41:51.309Z,48.43
2022-10-05T14:47:01.226Z,48.50
2022-10-05T14:52:35.363Z,48.43
2022-10-05T14:57:43.900Z,48.50
2022-10-05T15:03:10.661Z,48.10
2022-10-05T15:08:30.552Z,48.67
2022-10-05T15:13:45.023Z,48.23
2022-10-05T15:19:15.887Z,48.07
2022-10-05T15:24:30.136Z,47.65
2022-10-05T15:30:00.316Z,49.27
2022-10-05T15:35:20.805Z,48.00
2022-10-05T15:40:45.934Z,48.13
2022-10-05T15:46:19.320Z,48.60
2022-10-05T15:52:03.106Z,48.20
2022-10-05T15:57:28.740Z,48.10
2022-10-05T16:02:44.219Z,53.15
2022-10-05T16:08:10.141Z,49.57
2022-10-05T16:13:39.004Z,50.00
2022-10-05T16:18:50.486Z,51.63
2022-10-05T16:24:05.889Z,57.13
2022-10-05T16:29:29.518Z,57.87
2022-10-05T16:35:01.824Z,74.83
2022-10-05T16:40:20.155Z,55.80
2022-10-05T16:45:46.275Z,50.67
2022-10-05T16:51:00.949Z,50.80
2022-10-05T16:56:09.617Z,52.07
2022-10-05T17:01:38.869Z,50.87
2022-10-05T17:06:54.540Z,53.07
2022-10-05T17:12:20.965Z,103.53
2022-10-05T17:17:58.613Z,57.90
2022-10-05T17:23:18.645Z,59.37
2022-10-05T17:28:46.051Z,58.78
2022-10-05T17:34:10.417Z,60.03
2022-10-05T17:39:19.375Z,64.63
2022-10-05T17:44:27.420Z,55.60
2022-10-05T17:49:42.611Z,48.17
2022-10-05T17:55:08.963Z,52.07
2022-10-05T18:00:34.388Z,47.00
2022-10-05T18:05:40.463Z,47.13
2022-10-05T18:11:12.654Z,47.20
2022-10-05T18:16:57.424Z,46.60
2022-10-05T18:22:16.015Z,47.07
2022-10-05T18:27:40.512Z,47.13
2022-10-05T18:32:57.470Z,47.80
2022-10-05T18:38:35.194Z,47.83
2022-10-05T18:44:03.868Z,49.23
2022-10-05T18:49:32.679Z,47.47
2022-10-05T18:54:55.139Z,47.30
2022-10-05T19:00:05.028Z,47.83
2022-10-05T19:05:46.349Z,47.50
2022-10-05T19:10:39.690Z,50.07
2022-10-05T19:15:51.829Z,53.97
2022-10-05T19:21:22.150Z,57.63
2022-10-05T19:26:47.935Z,57.48
2022-10-05T19:32:03.305Z,60.97
2022-10-05T19:37:27.896Z,59.10
2022-10-05T19:42:57.685Z,56.77
2022-10-05T19:48:15.604Z,58.17
2022-10-05T19:53:40.185Z,55.58
2022-10-05T19:58:46.253Z,56.10
2022-10-05T20:03:52.805Z,55.33
2022-10-05T20:09:01.785Z,53.50
2022-10-05T20:14:12.369Z,51.90
2022-10-05T20:19:54.898Z,51.30
2022-10-05T20:25:04.351Z,51.97
2022-10-05T20:30:11.718Z,51.07
2022-10-05T20:35:19.106Z,52.17
2022-10-05T20:40:24.486Z,51.83
2022-10-05T20:45:31.420Z,53.60
2022-10-05T20:50:37.597Z,51.50
2022-10-05T20:55:43.472Z,51.53
2022-10-05T21:01:07.426Z,50.50
2022-10-05T21:06:17.779Z,50.97
2022-10-05T21:11:23.163Z,48.93
2022-10-05T21:16:31.188Z,48.83
2022-10-05T21:21:37.605Z,49.40
2022-10-05T21:26:47.914Z,50.13
2022-10-05T21:31:53.872Z,48.83
2022-10-05T21:36:59.416Z,49.00
2022-10-05T21:42:05.492Z,51.50
2022-10-05T21:47:12.065Z,50.17
2022-10-05T21:52:17.748Z,51.33
2022-10-05T21:57:23.768Z,51.20
2022-10-05T22:02:30.043Z,47.90
2022-10-05T22:07:35.625Z,47.93
2022-10-05T22:12:42.282Z,47.30
2022-10-05T22:17:47.542Z,46.18
2022-10-05T22:22:53.855Z,48.50
2022-10-05T22:33:04.506Z,55.92
2022-10-05T22:38:09.762Z,48.40
2022-10-05T22:43:14.816Z,45.73
2022-10-05T22:48:21.199Z,47.27
2022-10-05T22:53:26.800Z,47.03
2022-10-05T22:58:31.811Z,47.13
2022-10-05T23:03:37.277Z,47.37
2022-10-05T23:08:44.053Z,46.87
2022-10-05T23:13:52.702Z,46.23
2022-10-05T23:18:57.693Z,46.33
2022-10-05T23:24:03.217Z,46.90
2022-10-05T23:29:10.315Z,46.90
2022-10-05T23:34:16.394Z,46.03
2022-10-05T23:39:22.158Z,46.08
2022-10-05T23:44:27.726Z,46.07
2022-10-05T23:49:33.183Z,46.63
2022-10-05T23:54:38.690Z,46.87
2022-10-05T23:59:44.106Z,46.53
